Bitflower — SBJE — position and weather

sailwx.info

Track history (hours):
 
Tides and Currents Weather Stations Pressure Air Temp Water Temp Dewpoint Dewpoint Depression Visibility Wind Speed Wind Dir Waves Ship Positions

Bitflower

Last reported at 2015-Mar-28 23:06 UTC. Time now 2015-Mar-31 02:10 UTC.
Position N 50°34' E 000°20'.

Length 116 m; draft 6.5 m.

Type: Ship. MMSI: 266009000.

Date/timePositionNaut miles runAvg speedWind from/ knotsBaromVisibWave heightAir tempDewpointWater temp
2015-Mar-28 23:06N 50°34' E 000°20'5 9.4
2015-Mar-28 22:33N 50°35' E 000°27'9 9.3
2015-Mar-28 21:33N 50°39' E 000°41'9 9.1
2015-Mar-28 20:33N 50°44' E 000°53'9 8.6
2015-Mar-28 19:31N 50°49' E 001°04'10 8.3
2015-Mar-28 18:15N 50°55' E 001°18'5 7.8
2015-Mar-28 17:33N 50°59' E 001°24'8 7.9
2015-Mar-28 16:33N 51°05' E 001°32'9 8.7
2015-Mar-28 15:33N 51°11' E 001°42'1010.1
2015-Mar-28 14:33N 51°19' E 001°52'1110.8
2015-Mar-28 13:33N 51°28' E 002°01'1211.0
2015-Mar-28 12:31N 51°37' E 002°14'12310.9
2015-Mar-28 01:11N 53°10' E 004°25'2210.4
2015-Mar-27 23:04N 53°29' E 004°43'1510.2
2015-Mar-27 21:33N 53°35' E 005°07'1111.0
2015-Mar-27 20:33N 53°38' E 005°24'1211.7
2015-Mar-27 19:33N 53°42' E 005°43'1211.8
2015-Mar-27 18:33N 53°46' E 006°02'4310.7
2015-Mar-27 14:33N 53°57' E 007°12'10 9.8
2015-Mar-27 13:33N 53°59' E 007°28'1010.0
2015-Mar-27 12:33N 54°01' E 007°45'1110.7
2015-Mar-27 11:33N 54°01' E 008°03'1312.0
2015-Mar-27 10:28N 53°59' E 008°25'1314.0
2015-Mar-27 09:33N 53°52' E 008°43'1413.7
2015-Mar-27 08:33N 53°53' E 009°07'1110.9
2015-Mar-27 07:33N 53°48' E 009°23'1111.2
2015-Mar-27 06:33N 53°38' E 009°32'1010.4
2015-Mar-27 05:33N 53°33' E 009°48'6 6.1
2015-Mar-27 04:33N 53°31' E 009°57'0 0.0
2015-Mar-27 03:27N 53°31' E 009°57'0 0.0
2015-Mar-27 02:18N 53°31' E 009°57'0 0.0
2015-Mar-27 01:29N 53°31' E 009°57'0 0.0
2015-Mar-27 00:33N 53°31' E 009°57'0 0.0
2015-Mar-26 23:29N 53°31' E 009°57'0 0.0
2015-Mar-26 22:33N 53°31' E 009°57'0 0.0
2015-Mar-26 21:29N 53°31' E 009°57'0 0.0
2015-Mar-26 20:29N 53°31' E 009°57'0 0.0
2015-Mar-26 19:27N 53°31' E 009°57'0 0.0
2015-Mar-26 18:29N 53°31' E 009°57'0 0.0
2015-Mar-26 17:33N 53°31' E 009°57'0 0.0
2015-Mar-26 16:29N 53°31' E 009°57'0 0.0
2015-Mar-26 15:29N 53°31' E 009°57'0 0.0
2015-Mar-26 14:29N 53°31' E 009°57'0 0.0
2015-Mar-26 13:32N 53°31' E 009°57'0 0.0
2015-Mar-26 12:32N 53°31' E 009°57'0 0.0
2015-Mar-26 11:32N 53°31' E 009°57'0 0.0
2015-Mar-26 10:33N 53°31' E 009°57'6 5.8
2015-Mar-26 09:34N 53°33' E 009°49'1010.0
2015-Mar-26 08:32N 53°37' E 009°33'1111.3
2015-Mar-26 07:33N 53°47' E 009°23'1111.5
2015-Mar-26 06:33N 53°53' E 009°07'1110.9
2015-Mar-26 05:34N 53°50' E 008°49'1111.2
2015-Mar-26 04:33N 53°58' E 008°35'1212.1
2015-Mar-26 03:33N 53°60' E 008°14'8 7.8
2015-Mar-26 02:34N 53°58' E 008°01'4 4.4
2015-Mar-26 01:33N 53°57' E 007°54'7 7.3
2015-Mar-26 00:33N 53°56' E 007°42'1211.9
2015-Mar-25 23:33N 53°53' E 007°22'1211.9
2015-Mar-25 22:33N 53°50' E 007°03'3210.6
2015-Mar-25 19:31N 53°43' E 006°09'9 9.6
2015-Mar-25 18:33N 53°40' E 005°55'10 9.7
2015-Mar-25 17:34N 53°37' E 005°39'9 9.4
2015-Mar-25 16:34N 53°34' E 005°24'9 9.3
2015-Mar-25 15:33N 53°31' E 005°09'9 9.4
2015-Mar-25 14:34N 53°27' E 004°55'9 9.0
2015-Mar-25 13:32N 53°22' E 004°42'24 9.5
2015-Mar-25 11:04N 53°02' E 004°22'510.0
2015-Mar-25 10:33N 52°57' E 004°19'1010.0
2015-Mar-25 09:33N 52°48' E 004°11'1010.5
2015-Mar-25 08:33N 52°41' E 003°59'8411.2
2015-Mar-25 01:04N 51°39' E 002°26'5 9.2
2015-Mar-25 00:33N 51°36' E 002°21'9 8.7
2015-Mar-24 23:32N 51°29' E 002°12'9 8.5
2015-Mar-24 22:31N 51°21' E 002°07'9 9.1
2015-Mar-24 21:33N 51°13' E 002°01'1010.4
2015-Mar-24 20:33N 51°08' E 001°46'1111.0
2015-Mar-24 19:33N 50°60' E 001°35'  
2015-Mar-20 04:33N 50°36' E 000°22'1312.5
2015-Mar-20 03:33N 50°41' E 000°40'1212.1
2015-Mar-20 02:33N 50°48' E 000°56'1510.7
2015-Mar-20 01:08N 50°58' E 001°14'5 9.0
2015-Mar-20 00:32N 51°01' E 001°21'8 8.5
2015-Mar-19 23:33N 51°06' E 001°31'9 9.1
2015-Mar-19 22:33N 51°12' E 001°43'1110.7
2015-Mar-19 21:33N 51°20' E 001°53'9 9.0
2015-Mar-19 20:33N 51°23' E 002°07'1111.4
2015-Mar-19 19:33N 51°22' E 002°25'1212.2
2015-Mar-19 18:34N 51°22' E 002°45'1414.0
2015-Mar-19 17:34N 51°24' E 003°07'1515.3
2015-Mar-19 16:33N 51°25' E 003°31'1312.7
2015-Mar-19 15:33N 51°21' E 003°50'10 9.5
2015-Mar-19 14:34N 51°22' E 004°05'9 8.6
2015-Mar-19 13:34N 51°18' E 004°17'2 2.0
2015-Mar-19 12:33N 51°17' E 004°20'2 1.9
2015-Mar-19 11:33N 51°15' E 004°22'0 0.0
2015-Mar-19 10:33N 51°15' E 004°22'0 0.0
2015-Mar-19 09:33N 51°15' E 004°22'0 0.0
2015-Mar-19 08:33N 51°15' E 004°22'0 0.0
2015-Mar-19 07:33N 51°15' E 004°22'0 0.0
2015-Mar-19 06:33N 51°15' E 004°22'0 0.0
2015-Mar-19 05:33N 51°15' E 004°22'0 0.0
2015-Mar-19 04:33N 51°15' E 004°22'0 0.0
2015-Mar-19 03:33N 51°15' E 004°22'0 0.0
2015-Mar-19 02:33N 51°15' E 004°22'0 0.0
2015-Mar-19 01:33N 51°15' E 004°22'0 0.0
2015-Mar-19 00:33N 51°15' E 004°22'0 0.0
2015-Mar-18 23:33N 51°15' E 004°22'  
Track history (hours):
 
Tides and Currents Weather Stations Pressure Air Temp Water Temp Dewpoint Dewpoint Depression Visibility Wind Speed Wind Dir Waves Ship Positions

Bitflower

Last reported at 2015-Mar-28 23:06 UTC. Time now 2015-Mar-31 02:10 UTC.
Position N 50°34' E 000°20'.

Length 116 m; draft 6.5 m.

Type: Ship. MMSI: 266009000.

Date/timePositionNaut miles runAvg speedWind from/ knotsBaromVisibWave heightAir tempDewpointWater temp
2015-Mar-28 23:06N 50°34' E 000°20'5 9.4
2015-Mar-28 22:33N 50°35' E 000°27'9 9.3
2015-Mar-28 21:33N 50°39' E 000°41'9 9.1
2015-Mar-28 20:33N 50°44' E 000°53'9 8.6
2015-Mar-28 19:31N 50°49' E 001°04'10 8.3
2015-Mar-28 18:15N 50°55' E 001°18'5 7.8
2015-Mar-28 17:33N 50°59' E 001°24'8 7.9
2015-Mar-28 16:33N 51°05' E 001°32'9 8.7
2015-Mar-28 15:33N 51°11' E 001°42'1010.1
2015-Mar-28 14:33N 51°19' E 001°52'1110.8
2015-Mar-28 13:33N 51°28' E 002°01'1211.0
2015-Mar-28 12:31N 51°37' E 002°14'12310.9
2015-Mar-28 01:11N 53°10' E 004°25'2210.4
2015-Mar-27 23:04N 53°29' E 004°43'1510.2
2015-Mar-27 21:33N 53°35' E 005°07'1111.0
2015-Mar-27 20:33N 53°38' E 005°24'1211.7
2015-Mar-27 19:33N 53°42' E 005°43'1211.8
2015-Mar-27 18:33N 53°46' E 006°02'4310.7
2015-Mar-27 14:33N 53°57' E 007°12'10 9.8
2015-Mar-27 13:33N 53°59' E 007°28'1010.0
2015-Mar-27 12:33N 54°01' E 007°45'1110.7
2015-Mar-27 11:33N 54°01' E 008°03'1312.0
2015-Mar-27 10:28N 53°59' E 008°25'1314.0
2015-Mar-27 09:33N 53°52' E 008°43'1413.7
2015-Mar-27 08:33N 53°53' E 009°07'1110.9
2015-Mar-27 07:33N 53°48' E 009°23'1111.2
2015-Mar-27 06:33N 53°38' E 009°32'1010.4
2015-Mar-27 05:33N 53°33' E 009°48'6 6.1
2015-Mar-27 04:33N 53°31' E 009°57'0 0.0
2015-Mar-27 03:27N 53°31' E 009°57'0 0.0
2015-Mar-27 02:18N 53°31' E 009°57'0 0.0
2015-Mar-27 01:29N 53°31' E 009°57'0 0.0
2015-Mar-27 00:33N 53°31' E 009°57'0 0.0
2015-Mar-26 23:29N 53°31' E 009°57'0 0.0
2015-Mar-26 22:33N 53°31' E 009°57'0 0.0
2015-Mar-26 21:29N 53°31' E 009°57'0 0.0
2015-Mar-26 20:29N 53°31' E 009°57'0 0.0
2015-Mar-26 19:27N 53°31' E 009°57'0 0.0
2015-Mar-26 18:29N 53°31' E 009°57'0 0.0
2015-Mar-26 17:33N 53°31' E 009°57'0 0.0
2015-Mar-26 16:29N 53°31' E 009°57'0 0.0
2015-Mar-26 15:29N 53°31' E 009°57'0 0.0
2015-Mar-26 14:29N 53°31' E 009°57'0 0.0
2015-Mar-26 13:32N 53°31' E 009°57'0 0.0
2015-Mar-26 12:32N 53°31' E 009°57'0 0.0
2015-Mar-26 11:32N 53°31' E 009°57'0 0.0
2015-Mar-26 10:33N 53°31' E 009°57'6 5.8
2015-Mar-26 09:34N 53°33' E 009°49'1010.0
2015-Mar-26 08:32N 53°37' E 009°33'1111.3
2015-Mar-26 07:33N 53°47' E 009°23'1111.5
2015-Mar-26 06:33N 53°53' E 009°07'1110.9
2015-Mar-26 05:34N 53°50' E 008°49'1111.2
2015-Mar-26 04:33N 53°58' E 008°35'1212.1
2015-Mar-26 03:33N 53°60' E 008°14'8 7.8
2015-Mar-26 02:34N 53°58' E 008°01'4 4.4
2015-Mar-26 01:33N 53°57' E 007°54'7 7.3
2015-Mar-26 00:33N 53°56' E 007°42'1211.9
2015-Mar-25 23:33N 53°53' E 007°22'1211.9
2015-Mar-25 22:33N 53°50' E 007°03'3210.6
2015-Mar-25 19:31N 53°43' E 006°09'9 9.6
2015-Mar-25 18:33N 53°40' E 005°55'10 9.7
2015-Mar-25 17:34N 53°37' E 005°39'9 9.4
2015-Mar-25 16:34N 53°34' E 005°24'9 9.3
2015-Mar-25 15:33N 53°31' E 005°09'9 9.4
2015-Mar-25 14:34N 53°27' E 004°55'9 9.0
2015-Mar-25 13:32N 53°22' E 004°42'24 9.5
2015-Mar-25 11:04N 53°02' E 004°22'510.0
2015-Mar-25 10:33N 52°57' E 004°19'1010.0
2015-Mar-25 09:33N 52°48' E 004°11'1010.5
2015-Mar-25 08:33N 52°41' E 003°59'8411.2
2015-Mar-25 01:04N 51°39' E 002°26'5 9.2
2015-Mar-25 00:33N 51°36' E 002°21'9 8.7
2015-Mar-24 23:32N 51°29' E 002°12'9 8.5
2015-Mar-24 22:31N 51°21' E 002°07'9 9.1
2015-Mar-24 21:33N 51°13' E 002°01'1010.4
2015-Mar-24 20:33N 51°08' E 001°46'1111.0
2015-Mar-24 19:33N 50°60' E 001°35'  
2015-Mar-20 04:33N 50°36' E 000°22'1312.5
2015-Mar-20 03:33N 50°41' E 000°40'1212.1
2015-Mar-20 02:33N 50°48' E 000°56'1510.7
2015-Mar-20 01:08N 50°58' E 001°14'5 9.0
2015-Mar-20 00:32N 51°01' E 001°21'8 8.5
2015-Mar-19 23:33N 51°06' E 001°31'9 9.1
2015-Mar-19 22:33N 51°12' E 001°43'1110.7
2015-Mar-19 21:33N 51°20' E 001°53'9 9.0
2015-Mar-19 20:33N 51°23' E 002°07'1111.4
2015-Mar-19 19:33N 51°22' E 002°25'1212.2
2015-Mar-19 18:34N 51°22' E 002°45'1414.0
2015-Mar-19 17:34N 51°24' E 003°07'1515.3
2015-Mar-19 16:33N 51°25' E 003°31'1312.7
2015-Mar-19 15:33N 51°21' E 003°50'10 9.5
2015-Mar-19 14:34N 51°22' E 004°05'9 8.6
2015-Mar-19 13:34N 51°18' E 004°17'2 2.0
2015-Mar-19 12:33N 51°17' E 004°20'2 1.9
2015-Mar-19 11:33N 51°15' E 004°22'0 0.0
2015-Mar-19 10:33N 51°15' E 004°22'0 0.0
2015-Mar-19 09:33N 51°15' E 004°22'0 0.0
2015-Mar-19 08:33N 51°15' E 004°22'0 0.0
2015-Mar-19 07:33N 51°15' E 004°22'0 0.0
2015-Mar-19 06:33N 51°15' E 004°22'0 0.0
2015-Mar-19 05:33N 51°15' E 004°22'0 0.0
2015-Mar-19 04:33N 51°15' E 004°22'0 0.0
2015-Mar-19 03:33N 51°15' E 004°22'0 0.0
2015-Mar-19 02:33N 51°15' E 004°22'0 0.0
2015-Mar-19 01:33N 51°15' E 004°22'0 0.0
2015-Mar-19 00:33N 51°15' E 004°22'0 0.0
2015-Mar-18 23:33N 51°15' E 004°22'  

Dump ship's entire track history